Time;durP1;ratioP1;P1;durP2;ratioP2;P2;SDS_P1;SDS_P2;PMS_P1;PMS_P2;Temp;Humidity;BMP_temperature;BMP_pressure;BME280_temperature;BME280_humidity;BME280_pressure;Samples;Min_cycle;Max_cycle;Signal;HPM_P1;HPM_P2
2021/05/08 00:01:59;;;;;;;8.25;4.68;;;-1.00;99.90;;;;;;5078516;28;20056;-83
2021/05/08 00:04:28;;;;;;;5.95;4.20;;;-1.10;99.90;;;;;;5080829;28;20055;-83
2021/05/08 00:06:58;;;;;;;7.22;4.03;;;-1.00;99.90;;;;;;5078385;28;20048;-83
2021/05/08 00:09:25;;;;;;;7.68;4.30;;;-1.00;99.90;;;;;;5078447;28;20495;-84
2021/05/08 00:11:56;;;;;;;5.00;4.10;;;-1.10;99.90;;;;;;5078259;28;20101;-85
2021/05/08 00:14:24;;;;;;;5.43;3.90;;;-1.00;99.90;;;;;;5078045;28;20044;-83
2021/05/08 00:16:50;;;;;;;4.32;3.92;;;-1.00;99.90;;;;;;5077651;28;20050;-83
2021/05/08 00:19:17;;;;;;;4.95;3.72;;;-1.10;99.90;;;;;;5095563;28;20415;-83
2021/05/08 00:21:43;;;;;;;7.20;4.70;;;-1.20;99.90;;;;;;5095525;28;20040;-83
2021/05/08 00:24:11;;;;;;;7.10;3.80;;;-1.20;99.90;;;;;;5077573;28;20121;-83
2021/05/08 00:26:37;;;;;;;4.38;3.75;;;-1.20;99.90;;;;;;5077953;28;20055;-85
2021/05/08 00:29:07;;;;;;;4.38;3.38;;;-1.30;99.90;;;;;;5078070;28;20048;-83
2021/05/08 00:31:33;;;;;;;3.83;3.40;;;-1.40;99.90;;;;;;5096459;28;20066;-83
2021/05/08 00:34:00;;;;;;;4.07;3.60;;;-1.40;99.90;;;;;;5077791;28;20487;-83
2021/05/08 00:36:26;;;;;;;5.68;4.22;;;-1.40;99.90;;;;;;5077768;28;20514;-82
2021/05/08 00:38:53;;;;;;;5.35;4.35;;;-1.40;99.90;;;;;;5078238;28;20102;-84
2021/05/08 00:41:19;;;;;;;8.60;3.83;;;-1.50;99.90;;;;;;5077900;28;20044;-83
2021/05/08 00:43:45;;;;;;;6.18;4.30;;;-1.50;99.90;;;;;;5078775;28;20052;-83
2021/05/08 00:46:13;;;;;;;5.75;4.22;;;-1.50;99.90;;;;;;5078368;28;20048;-83
2021/05/08 00:48:43;;;;;;;6.40;3.47;;;-1.50;99.90;;;;;;5096470;28;20052;-84
2021/05/08 00:51:10;;;;;;;4.55;4.05;;;-1.50;99.90;;;;;;5079493;28;20419;-83
2021/05/08 00:53:36;;;;;;;5.00;4.50;;;-1.50;99.90;;;;;;5095688;28;20484;-82
2021/05/08 00:56:06;;;;;;;4.32;3.90;;;-1.50;99.90;;;;;;5077242;28;20097;-82
2021/05/08 00:58:33;;;;;;;16.70;4.57;;;-1.50;99.90;;;;;;5077545;28;20043;-82
2021/05/08 01:01:00;;;;;;;8.48;4.68;;;-1.50;99.90;;;;;;5077357;28;20525;-84
2021/05/08 01:03:26;;;;;;;5.18;4.68;;;-1.60;99.90;;;;;;5095619;28;20044;-82
2021/05/08 01:05:53;;;;;;;4.55;4.15;;;-1.60;99.90;;;;;;5077572;28;20067;-82
2021/05/08 01:08:20;;;;;;;4.53;4.13;;;-1.60;99.90;;;;;;5094388;28;20055;-82
2021/05/08 01:10:48;;;;;;;6.00;3.97;;;-1.60;99.90;;;;;;5076673;28;20067;-81
2021/05/08 01:13:16;;;;;;;5.25;3.92;;;-1.60;99.90;;;;;;5078723;28;20055;-82
2021/05/08 01:15:42;;;;;;;5.53;4.30;;;-1.70;99.90;;;;;;5098801;28;20105;-82
2021/05/08 01:18:09;;;;;;;9.02;5.22;;;-1.60;99.90;;;;;;5098596;28;20541;-82
2021/05/08 01:20:37;;;;;;;7.68;5.03;;;-1.70;99.90;;;;;;5080613;28;20048;-82
2021/05/08 01:23:04;;;;;;;8.90;6.35;;;-1.60;99.90;;;;;;5081014;28;20105;-83
2021/05/08 01:25:31;;;;;;;10.80;6.50;;;-1.40;99.90;;;;;;5080657;28;20075;-82
2021/05/08 01:28:03;;;;;;;7.80;6.22;;;-1.20;99.90;;;;;;5082483;28;20130;-82
2021/05/08 01:30:32;;;;;;;13.35;5.97;;;-1.30;99.90;;;;;;5082045;28;20083;-82
2021/05/08 01:32:59;;;;;;;10.70;5.45;;;-1.40;99.90;;;;;;5079771;28;20114;-81
2021/05/08 01:35:28;;;;;;;10.82;5.43;;;-1.40;99.90;;;;;;5079321;28;20048;-81
2021/05/08 01:37:54;;;;;;;5.40;4.50;;;-1.40;99.90;;;;;;5079528;28;20458;-81
2021/05/08 01:40:36;;;;;;;6.65;4.40;;;-1.60;99.90;;;;;;5097612;28;20048;-83
2021/05/08 01:43:03;;;;;;;7.65;5.03;;;-1.60;99.90;;;;;;5080963;28;20067;-85
2021/05/08 01:45:29;;;;;;;10.63;5.25;;;-1.60;99.90;;;;;;5084580;28;20453;-85
2021/05/08 01:47:58;;;;;;;7.43;5.32;;;-1.60;99.90;;;;;;5083686;28;20059;-85
2021/05/08 01:50:26;;;;;;;5.47;4.97;;;-1.50;99.90;;;;;;5083747;28;20081;-85
2021/05/08 01:52:53;;;;;;;7.78;5.05;;;-1.60;99.90;;;;;;5083833;28;20044;-85
2021/05/08 01:55:21;;;;;;;8.73;5.20;;;-1.60;99.90;;;;;;5102120;28;20457;-85
2021/05/08 01:57:48;;;;;;;5.38;4.68;;;-1.60;99.90;;;;;;5084701;28;20044;-85
2021/05/08 02:00:21;;;;;;;6.10;5.00;;;-1.60;99.90;;;;;;5085367;28;20047;-84
2021/05/08 02:02:49;;;;;;;6.10;4.40;;;-1.70;99.90;;;;;;5105949;28;20149;-83
2021/05/08 02:05:16;;;;;;;9.02;4.88;;;-1.70;99.90;;;;;;5100429;28;20059;-83
2021/05/08 02:07:42;;;;;;;7.20;4.60;;;-1.80;99.90;;;;;;5094911;28;20078;-84
2021/05/08 02:10:10;;;;;;;5.70;4.50;;;-1.70;99.90;;;;;;5083852;28;20044;-83
2021/05/08 02:12:38;;;;;;;6.15;4.28;;;-1.70;99.90;;;;;;5082099;28;20487;-84
2021/05/08 02:15:13;;;;;;;6.28;4.20;;;-1.70;99.90;;;;;;5099936;28;20044;-84
2021/05/08 02:17:40;;;;;;;6.65;4.20;;;-1.70;99.90;;;;;;5081302;28;20082;-84
2021/05/08 02:20:23;;;;;;;6.07;4.68;;;-1.70;99.90;;;;;;5081003;28;20055;-84
2021/05/08 02:22:50;;;;;;;4.80;4.40;;;-1.70;99.90;;;;;;5080830;28;20048;-84
2021/05/08 02:25:17;;;;;;;5.50;4.32;;;-1.80;99.90;;;;;;5098133;28;20328;-84
2021/05/08 02:27:43;;;;;;;5.13;4.50;;;-1.80;99.90;;;;;;5099250;28;20115;-84
2021/05/08 02:30:16;;;;;;;5.65;4.30;;;-1.80;99.90;;;;;;5080496;28;20048;-84
2021/05/08 02:32:42;;;;;;;10.93;5.45;;;-1.80;99.90;;;;;;5099282;28;20086;-84
2021/05/08 02:35:10;;;;;;;6.30;5.60;;;-1.90;99.90;;;;;;5080770;28;20080;-84
2021/05/08 02:37:37;;;;;;;5.43;4.50;;;-1.80;99.90;;;;;;5080957;28;20131;-84
2021/05/08 02:40:08;;;;;;;8.68;4.90;;;-1.80;99.90;;;;;;5081158;28;20135;-84
2021/05/08 02:42:34;;;;;;;6.13;4.82;;;-1.90;99.90;;;;;;5080584;28;20094;-84
2021/05/08 02:45:00;;;;;;;6.20;5.20;;;-1.90;99.90;;;;;;5081235;28;20087;-83
2021/05/08 02:47:27;;;;;;;17.95;5.40;;;-1.90;99.90;;;;;;5081398;28;20044;-84
2021/05/08 02:49:56;;;;;;;5.65;4.25;;;-1.90;99.90;;;;;;5099386;28;20048;-84
2021/05/08 02:52:22;;;;;;;5.10;4.38;;;-1.90;99.90;;;;;;5098044;28;20139;-83
2021/05/08 02:54:50;;;;;;;6.60;4.90;;;-2.00;99.90;;;;;;5078506;28;20388;-83
2021/05/08 02:57:16;;;;;;;6.50;4.72;;;-2.00;99.90;;;;;;5078582;28;20048;-83
2021/05/08 02:59:43;;;;;;;7.03;4.97;;;-2.00;99.90;;;;;;5078353;28;20054;-83
2021/05/08 03:02:09;;;;;;;6.70;4.25;;;-2.10;99.90;;;;;;5078305;28;20064;-82
2021/05/08 03:04:36;;;;;;;7.85;4.47;;;-2.10;99.90;;;;;;5078529;28;20052;-82
2021/05/08 03:07:03;;;;;;;4.93;4.40;;;-2.10;99.90;;;;;;5096131;28;20047;-82
2021/05/08 03:09:31;;;;;;;7.82;5.63;;;-2.10;99.90;;;;;;5078271;28;20051;-83
2021/05/08 03:11:59;;;;;;;10.93;5.93;;;-2.00;99.90;;;;;;5077855;28;20067;-83
2021/05/08 03:14:26;;;;;;;8.65;5.85;;;-2.00;99.90;;;;;;5095903;28;20071;-82
2021/05/08 03:17:05;;;;;;;6.97;5.53;;;-2.00;99.90;;;;;;5095903;28;20419;-82
2021/05/08 03:19:33;;;;;;;6.15;4.60;;;-2.00;99.90;;;;;;5078996;28;20075;-82
2021/05/08 03:22:00;;;;;;;6.03;4.95;;;-2.00;99.90;;;;;;5078712;28;20130;-82
2021/05/08 03:24:26;;;;;;;6.28;4.68;;;-2.10;99.90;;;;;;5079587;28;20051;-83
2021/05/08 03:26:52;;;;;;;8.93;5.47;;;-2.10;99.90;;;;;;5088227;28;20052;-82
2021/05/08 03:29:18;;;;;;;5.82;5.13;;;-2.10;99.90;;;;;;5081615;28;20559;-82
2021/05/08 03:31:45;;;;;;;6.97;5.45;;;-2.10;99.90;;;;;;5083671;28;20079;-81
2021/05/08 03:34:11;;;;;;;9.32;6.07;;;-2.10;99.90;;;;;;5083021;28;20070;-82
2021/05/08 03:36:38;;;;;;;6.40;5.40;;;-2.10;99.90;;;;;;5083769;28;20093;-82
2021/05/08 03:39:04;;;;;;;9.02;5.32;;;-2.00;99.90;;;;;;5083927;28;20074;-82
2021/05/08 03:41:31;;;;;;;10.02;6.40;;;-2.00;99.90;;;;;;5083052;28;20056;-82
2021/05/08 03:43:57;;;;;;;6.72;5.63;;;-2.10;99.90;;;;;;5083902;28;20067;-82
2021/05/08 03:46:23;;;;;;;8.40;5.60;;;-2.00;99.90;;;;;;5083518;28;20102;-81
2021/05/08 03:48:50;;;;;;;12.60;5.95;;;-2.00;99.90;;;;;;5083452;28;20052;-81
2021/05/08 03:51:17;;;;;;;5.97;5.40;;;-2.10;99.90;;;;;;5084368;28;20048;-81
2021/05/08 03:53:43;;;;;;;6.70;6.00;;;-2.10;99.90;;;;;;5083873;28;20105;-81
2021/05/08 03:56:10;;;;;;;9.38;7.68;;;-2.00;99.90;;;;;;5102718;28;20047;-82
2021/05/08 03:58:36;;;;;;;12.73;7.18;;;-2.10;99.90;;;;;;5085024;28;20388;-81
2021/05/08 04:01:02;;;;;;;8.82;6.90;;;-2.00;99.90;;;;;;5083863;28;20040;-82
2021/05/08 04:03:29;;;;;;;8.57;6.90;;;-2.00;99.90;;;;;;5085025;28;20048;-82
2021/05/08 04:05:55;;;;;;;8.32;5.70;;;-2.00;99.90;;;;;;5084786;28;20079;-81
2021/05/08 04:08:22;;;;;;;8.68;7.05;;;-2.00;99.90;;;;;;5102815;28;20052;-81
2021/05/08 04:10:49;;;;;;;9.75;6.63;;;-2.00;99.90;;;;;;5102389;28;20129;-82
2021/05/08 04:13:16;;;;;;;8.50;6.72;;;-2.00;99.90;;;;;;5101841;28;20055;-82
2021/05/08 04:15:44;;;;;;;9.15;7.13;;;-2.00;99.90;;;;;;5084491;28;20461;-82
2021/05/08 04:18:11;;;;;;;8.63;7.03;;;-1.90;99.90;;;;;;5102053;28;20044;-82
2021/05/08 04:20:38;;;;;;;7.93;6.88;;;-1.90;99.90;;;;;;5084134;28;20052;-82
2021/05/08 04:23:05;;;;;;;8.25;7.32;;;-1.80;99.90;;;;;;5085762;28;20047;-82
2021/05/08 04:25:32;;;;;;;9.02;7.50;;;-1.80;99.90;;;;;;5084825;28;20048;-82
2021/05/08 04:27:58;;;;;;;10.32;7.88;;;-1.80;99.90;;;;;;5087323;28;20082;-81
2021/05/08 04:30:24;;;;;;;13.77;9.40;;;-1.70;99.90;;;;;;5088411;28;20048;-82
2021/05/08 04:33:10;;;;;;;12.00;8.38;;;-1.70;99.90;;;;;;5103499;28;20035;-81
2021/05/08 04:35:37;;;;;;;8.88;7.80;;;-1.60;99.90;;;;;;5118598;28;20035;-81
2021/05/08 04:38:06;;;;;;;11.40;8.85;;;-1.60;99.90;;;;;;5086409;28;20075;-82
2021/05/08 04:40:32;;;;;;;13.07;9.60;;;-1.50;99.90;;;;;;5084457;28;20051;-83
2021/05/08 04:42:59;;;;;;;13.32;9.13;;;-1.40;99.90;;;;;;5084171;28;20086;-83
2021/05/08 04:45:25;;;;;;;13.52;10.10;;;-1.30;99.90;;;;;;5097102;28;20044;-81
2021/05/08 04:47:58;;;;;;;14.60;11.80;;;-1.10;99.90;;;;;;5075511;28;20495;-81
2021/05/08 04:50:26;;;;;;;22.30;13.35;;;-1.00;99.90;;;;;;5076124;28;20134;-81
2021/05/08 04:52:53;;;;;;;17.05;12.13;;;-0.90;99.90;;;;;;5076024;28;20101;-82
2021/05/08 04:55:20;;;;;;;18.58;13.05;;;-0.80;99.90;;;;;;5076114;28;20048;-82
2021/05/08 04:57:48;;;;;;;23.73;15.82;;;-0.70;99.90;;;;;;5076018;28;20086;-82
2021/05/08 05:00:16;;;;;;;20.30;14.57;;;-0.50;99.90;;;;;;5075655;28;20125;-82
2021/05/08 05:02:43;;;;;;;24.25;17.13;;;-0.30;99.90;;;;;;5075517;28;20082;-82
2021/05/08 05:05:11;;;;;;;38.78;23.10;;;0.00;99.90;;;;;;5075404;28;20048;-82
2021/05/08 05:07:38;;;;;;;53.60;27.25;;;0.30;99.90;;;;;;5075322;28;20071;-82
2021/05/08 05:10:05;;;;;;;63.13;35.92;;;0.70;99.90;;;;;;5092981;28;20083;-83
2021/05/08 05:12:31;;;;;;;38.00;26.38;;;0.80;99.90;;;;;;5074954;28;20044;-83
2021/05/08 05:14:57;;;;;;;952.72;191.35;;;1.30;99.90;;;;;;5093626;28;20082;-84
2021/05/08 05:17:24;;;;;;;82.25;52.63;;;2.30;99.90;;;;;;5078242;28;20094;-84
2021/05/08 05:19:52;;;;;;;15.55;12.40;;;3.10;99.90;;;;;;5078193;28;20043;-84
2021/05/08 05:22:18;;;;;;;10.02;8.80;;;4.30;99.90;;;;;;5077587;28;20048;-85
2021/05/08 05:24:45;;;;;;;10.88;7.75;;;5.40;99.90;;;;;;5078542;28;20052;-85
2021/05/08 05:27:11;;;;;;;6.55;5.93;;;6.40;99.90;;;;;;5095564;28;20083;-85
2021/05/08 05:29:37;;;;;;;11.10;8.50;;;7.10;99.90;;;;;;5078030;28;20422;-85
2021/05/08 05:32:03;;;;;;;8.95;6.43;;;7.50;99.90;;;;;;5096198;28;20159;-85
2021/05/08 05:34:30;;;;;;;56.00;37.90;;;7.70;99.90;;;;;;5078067;28;20048;-85
2021/05/08 05:36:58;;;;;;;15.50;11.10;;;8.00;99.90;;;;;;5078820;28;20095;-85
2021/05/08 05:39:24;;;;;;;5.00;2.50;;;8.90;99.90;;;;;;5078743;28;20048;-86
2021/05/08 05:41:50;;;;;;;4.00;2.80;;;8.60;99.90;;;;;;5096460;28;20072;-86
2021/05/08 05:44:16;;;;;;;3.85;2.90;;;9.20;99.90;;;;;;5077165;28;20044;-86
2021/05/08 05:46:43;;;;;;;6.65;1.95;;;9.90;99.90;;;;;;5077409;28;20056;-87
2021/05/08 05:49:09;;;;;;;2.92;1.65;;;11.10;99.90;;;;;;5095419;28;20079;-87
2021/05/08 05:51:35;;;;;;;10.95;2.60;;;11.80;99.90;;;;;;5077432;28;20091;-87
2021/05/08 05:54:02;;;;;;;5.07;1.90;;;12.20;99.90;;;;;;5076477;28;20087;-87
2021/05/08 05:56:29;;;;;;;4.70;1.90;;;12.40;99.90;;;;;;5095166;28;20101;-87
2021/05/08 05:58:55;;;;;;;2.05;1.80;;;13.00;99.90;;;;;;5078792;28;20052;-87
2021/05/08 06:01:22;;;;;;;3.72;1.92;;;13.10;98.80;;;;;;5082428;28;20051;-87
2021/05/08 06:03:48;;;;;;;3.45;1.80;;;13.60;97.60;;;;;;5079212;28;20048;-86
2021/05/08 06:06:15;;;;;;;11.40;8.50;;;13.90;97.10;;;;;;5096745;28;20052;-87
2021/05/08 06:08:41;;;;;;;6.90;5.40;;;14.00;93.80;;;;;;5097077;28;20051;-87
2021/05/08 06:11:08;;;;;;;5.25;2.58;;;13.50;96.00;;;;;;5078619;28;20135;-87
2021/05/08 06:13:35;;;;;;;4.07;1.58;;;14.00;95.20;;;;;;5078382;28;20487;-87
2021/05/08 06:16:03;;;;;;;2.58;2.00;;;14.70;91.60;;;;;;5096547;28;20131;-86
2021/05/08 06:18:29;;;;;;;2.75;2.28;;;15.10;91.50;;;;;;5078205;28;20048;-87
2021/05/08 06:20:56;;;;;;;13.02;5.93;;;15.50;90.00;;;;;;5077961;28;20073;-87
2021/05/08 06:23:22;;;;;;;4.53;2.80;;;15.80;85.70;;;;;;5078167;28;20452;-86
2021/05/08 06:25:49;;;;;;;3.97;2.30;;;15.80;86.30;;;;;;5077772;28;20135;-87
2021/05/08 06:28:17;;;;;;;4.32;1.95;;;15.40;85.60;;;;;;5077727;28;20052;-87
2021/05/08 06:30:44;;;;;;;8.63;3.22;;;16.10;84.10;;;;;;5077777;28;20466;-87
2021/05/08 06:33:10;;;;;;;4.55;2.05;;;17.30;80.50;;;;;;5077751;28;20552;-85
2021/05/08 06:35:37;;;;;;;3.15;2.03;;;17.90;79.30;;;;;;5079101;28;20072;-85
2021/05/08 06:38:04;;;;;;;15.75;3.05;;;18.60;75.40;;;;;;5079686;28;20102;-85
2021/05/08 06:40:30;;;;;;;33.97;3.70;;;19.10;73.20;;;;;;5079504;28;20128;-85
2021/05/08 06:42:56;;;;;;;44.08;17.23;;;19.30;69.60;;;;;;5077795;28;20056;-85
2021/05/08 06:45:22;;;;;;;25.67;6.60;;;18.30;69.40;;;;;;5078069;28;20043;-85
2021/05/08 06:47:57;;;;;;;25.42;4.03;;;19.00;67.80;;;;;;5078055;28;20048;-85
2021/05/08 06:50:23;;;;;;;25.20;2.65;;;19.40;67.10;;;;;;5079846;28;20055;-85
2021/05/08 06:52:50;;;;;;;25.52;4.65;;;18.10;69.80;;;;;;5080180;28;20056;-85
2021/05/08 06:55:16;;;;;;;16.20;2.83;;;18.70;68.60;;;;;;5088143;28;20052;-85
2021/05/08 06:57:42;;;;;;;3.15;1.67;;;18.60;67.40;;;;;;5092229;28;20059;-85
2021/05/08 07:00:09;;;;;;;3.60;1.40;;;18.10;62.70;;;;;;5079750;28;20101;-84
2021/05/08 07:02:35;;;;;;;0.93;0.90;;;18.60;65.30;;;;;;5077704;28;20083;-85
2021/05/08 07:05:02;;;;;;;1.90;1.08;;;20.30;58.80;;;;;;5077770;28;20055;-84
2021/05/08 07:07:28;;;;;;;5.03;2.08;;;20.80;54.30;;;;;;5077552;28;20040;-84
2021/05/08 07:09:54;;;;;;;2.63;1.70;;;20.40;54.50;;;;;;5076787;28;20078;-86
2021/05/08 07:12:21;;;;;;;10.75;2.70;;;21.90;51.80;;;;;;5095003;28;20522;-84
2021/05/08 07:14:47;;;;;;;1.48;1.38;;;21.40;50.70;;;;;;5077252;28;20067;-84
2021/05/08 07:17:15;;;;;;;1.35;1.10;;;22.50;50.10;;;;;;5078573;28;20079;-83
2021/05/08 07:19:44;;;;;;;1.67;1.00;;;23.00;47.10;;;;;;5079928;28;20048;-85
2021/05/08 07:22:10;;;;;;;2.72;0.90;;;22.50;47.10;;;;;;5078919;28;20066;-84
2021/05/08 07:24:36;;;;;;;1.58;1.48;;;21.50;47.20;;;;;;5079516;28;20068;-85
2021/05/08 07:27:04;;;;;;;1.10;0.63;;;21.00;48.80;;;;;;5096656;28;20044;-87
2021/05/08 07:29:30;;;;;;;1.00;1.00;;;20.80;47.80;;;;;;5078316;28;20087;-86
2021/05/08 07:31:59;;;;;;;1.23;0.90;;;20.60;47.90;;;;;;5077800;28;20053;-84
2021/05/08 07:34:25;;;;;;;1.35;1.10;;;20.10;48.30;;;;;;5097388;28;20087;-84
2021/05/08 07:36:52;;;;;;;1.80;0.85;;;20.50;47.80;;;;;;5097731;28;20101;-83
2021/05/08 07:39:18;;;;;;;1.15;1.10;;;20.80;48.10;;;;;;5096207;28;20465;-87
2021/05/08 07:41:44;;;;;;;1.33;1.10;;;21.00;47.60;;;;;;5078827;28;20135;-84
2021/05/08 07:44:11;;;;;;;5.40;1.17;;;21.10;45.30;;;;;;5080146;28;20066;-83
2021/05/08 07:46:37;;;;;;;2.05;1.02;;;21.20;46.80;;;;;;5080454;28;20048;-84
2021/05/08 07:49:04;;;;;;;1.77;1.13;;;21.40;46.20;;;;;;5080120;28;20066;-82
2021/05/08 07:51:30;;;;;;;1.48;1.30;;;21.50;46.30;;;;;;5079799;28;20150;-83
2021/05/08 07:53:56;;;;;;;2.78;1.48;;;21.20;46.10;;;;;;5079983;28;20048;-87
2021/05/08 07:56:23;;;;;;;1.48;1.38;;;21.30;45.50;;;;;;5080747;28;20044;-84
2021/05/08 07:58:49;;;;;;;1.50;0.98;;;21.30;45.90;;;;;;5098195;28;20491;-86
2021/05/08 08:01:16;;;;;;;1.17;1.05;;;20.50;46.10;;;;;;5078056;28;20081;-84
2021/05/08 08:03:42;;;;;;;1.98;1.13;;;19.50;47.00;;;;;;5078238;28;20055;-86
2021/05/08 08:06:08;;;;;;;1.50;1.10;;;18.90;48.30;;;;;;5079122;28;20056;-86
2021/05/08 08:08:35;;;;;;;1.50;1.40;;;19.40;48.20;;;;;;5078241;28;20056;-86
2021/05/08 08:11:01;;;;;;;1.42;1.33;;;19.10;49.00;;;;;;5079259;28;20499;-86
2021/05/08 08:13:27;;;;;;;2.25;1.20;;;19.00;49.00;;;;;;5079014;28;20071;-86
2021/05/08 08:15:54;;;;;;;1.48;1.38;;;19.10;49.80;;;;;;5078985;28;20075;-86
2021/05/08 08:18:21;;;;;;;1.80;1.20;;;20.40;48.20;;;;;;5079091;28;20113;-87
2021/05/08 08:20:47;;;;;;;3.08;1.52;;;21.20;45.90;;;;;;5080283;28;20052;-84
2021/05/08 08:23:14;;;;;;;2.15;1.15;;;21.90;44.90;;;;;;5098576;28;20056;-85
2021/05/08 08:25:40;;;;;;;2.45;1.60;;;22.10;43.80;;;;;;5081190;28;20048;-85
2021/05/08 08:28:06;;;;;;;1.20;1.20;;;22.50;43.90;;;;;;5099428;28;20384;-85
2021/05/08 08:30:33;;;;;;;1.83;1.60;;;21.70;43.10;;;;;;5079163;28;20170;-86
2021/05/08 08:32:59;;;;;;;1.60;1.50;;;21.50;44.30;;;;;;5076497;28;20511;-85
2021/05/08 08:35:25;;;;;;;1.60;1.30;;;21.10;44.90;;;;;;5096534;28;20135;-86
2021/05/08 08:37:54;;;;;;;2.72;1.45;;;21.40;45.60;;;;;;5082762;28;20055;-85
2021/05/08 08:40:21;;;;;;;1.35;1.25;;;21.80;45.50;;;;;;5101234;28;20083;-85
2021/05/08 08:42:47;;;;;;;11.50;8.45;;;22.50;43.80;;;;;;5084224;28;20047;-84
2021/05/08 08:45:14;;;;;;;2.97;2.67;;;22.20;42.40;;;;;;5081568;28;20086;-82
2021/05/08 08:47:41;;;;;;;8.73;1.90;;;21.10;43.30;;;;;;5077174;28;20105;-83
2021/05/08 08:50:09;;;;;;;2.33;1.40;;;20.60;43.40;;;;;;5079374;28;20168;-87
2021/05/08 08:52:36;;;;;;;1.77;1.67;;;19.10;46.00;;;;;;5079278;28;20060;-86
2021/05/08 08:55:09;;;;;;;2.30;1.50;;;19.90;46.30;;;;;;5078681;28;20048;-85
2021/05/08 08:57:39;;;;;;;1.95;1.85;;;19.10;47.80;;;;;;5079774;28;20051;-86
2021/05/08 09:00:12;;;;;;;2.53;1.55;;;17.90;47.10;;;;;;5080460;28;20543;-87
2021/05/08 09:02:40;;;;;;;1.67;1.58;;;17.70;49.30;;;;;;5078815;28;20048;-84
2021/05/08 09:05:09;;;;;;;1.92;1.83;;;18.90;48.10;;;;;;5080375;28;20044;-84
2021/05/08 09:07:38;;;;;;;3.03;1.83;;;18.60;47.60;;;;;;5081403;28;20062;-86
2021/05/08 09:10:05;;;;;;;3.17;1.83;;;18.50;47.90;;;;;;5080049;28;20525;-87
2021/05/08 09:12:45;;;;;;;2.25;1.48;;;19.70;48.30;;;;;;5080500;28;20048;-86
2021/05/08 09:15:12;;;;;;;3.70;1.50;;;20.40;45.50;;;;;;5081304;28;20059;-87
2021/05/08 09:17:45;;;;;;;2.00;1.70;;;20.00;46.50;;;;;;5091791;28;20063;-86
2021/05/08 09:20:12;;;;;;;2.05;1.48;;;19.10;47.00;;;;;;5094273;28;20048;-85
2021/05/08 09:22:43;;;;;;;2.55;1.95;;;19.00;48.40;;;;;;5082893;28;20431;-83
2021/05/08 09:25:12;;;;;;;1.63;1.52;;;19.40;47.20;;;;;;5078608;28;20044;-83
2021/05/08 09:27:41;;;;;;;1.92;1.80;;;19.90;46.80;;;;;;5097834;28;20052;-83
2021/05/08 09:30:10;;;;;;;2.75;2.10;;;20.60;47.30;;;;;;5078216;28;20067;-83
2021/05/08 09:32:44;;;;;;;1.92;1.83;;;19.40;46.00;;;;;;5078545;28;20107;-84
2021/05/08 09:35:15;;;;;;;2.30;2.20;;;19.90;46.40;;;;;;5082200;28;20044;-84
2021/05/08 09:37:42;;;;;;;2.10;1.70;;;20.50;46.90;;;;;;5082105;28;20056;-85
2021/05/08 09:40:25;;;;;;;2.40;2.20;;;20.70;46.50;;;;;;5082574;28;20102;-84
2021/05/08 09:42:55;;;;;;;1.88;1.77;;;21.10;44.70;;;;;;5081714;28;20526;-83
2021/05/08 09:45:26;;;;;;;1.98;1.88;;;19.20;45.60;;;;;;5081162;28;20075;-84
2021/05/08 09:47:53;;;;;;;2.42;2.22;;;18.00;46.70;;;;;;5099046;28;20560;-84
2021/05/08 09:50:26;;;;;;;3.55;2.30;;;18.20;48.40;;;;;;5082556;28;20050;-84
2021/05/08 09:52:55;;;;;;;3.00;2.00;;;18.80;47.30;;;;;;5082611;28;20055;-83
2021/05/08 09:55:23;;;;;;;5.18;1.85;;;20.40;45.70;;;;;;5081318;28;20104;-83
2021/05/08 09:58:04;;;;;;;2.05;1.92;;;21.10;46.10;;;;;;5100928;28;20052;-84
2021/05/08 10:00:40;;;;;;;4.50;2.20;;;19.50;45.70;;;;;;5081657;28;20048;-85
2021/05/08 10:03:15;;;;;;;1.80;1.70;;;18.50;47.90;;;;;;5082416;28;20048;-84
2021/05/08 10:05:48;;;;;;;2.20;2.00;;;18.50;49.40;;;;;;5081960;28;20040;-82
2021/05/08 10:08:15;;;;;;;1.95;1.80;;;19.60;49.20;;;;;;5082252;28;20048;-83
2021/05/08 10:10:42;;;;;;;1.85;1.75;;;20.60;45.10;;;;;;5083648;28;20093;-82
2021/05/08 10:13:11;;;;;;;1.80;1.70;;;20.20;45.10;;;;;;5082764;28;20093;-83
2021/05/08 10:15:40;;;;;;;1.73;1.63;;;20.10;45.90;;;;;;5081963;28;20415;-82
2021/05/08 10:18:12;;;;;;;2.58;1.95;;;20.00;46.60;;;;;;5083312;28;20047;-82
2021/05/08 10:20:40;;;;;;;3.30;1.90;;;19.00;47.30;;;;;;5081444;28;20052;-82
2021/05/08 10:23:12;;;;;;;1.80;1.70;;;18.90;47.70;;;;;;5081944;28;20044;-83
2021/05/08 10:25:43;;;;;;;1.75;1.65;;;19.60;48.40;;;;;;5103755;28;20071;-82
2021/05/08 10:28:09;;;;;;;2.95;1.80;;;20.30;46.90;;;;;;5081693;28;20047;-84
2021/05/08 10:30:42;;;;;;;4.97;4.57;;;20.60;46.90;;;;;;5085688;28;20055;-81
2021/05/08 10:33:10;;;;;;;9.32;2.97;;;20.80;46.70;;;;;;5079294;28;20044;-83
2021/05/08 10:35:56;;;;;;;3.40;1.80;;;20.40;46.70;;;;;;5078651;28;20048;-83
2021/05/08 10:38:30;;;;;;;2.78;1.85;;;20.80;46.50;;;;;;5080636;28;20056;-84
2021/05/08 10:41:09;;;;;;;2.17;2.00;;;20.40;45.30;;;;;;5079298;28;20047;-83
2021/05/08 10:43:47;;;;;;;2.25;2.15;;;19.80;46.20;;;;;;5097789;28;20448;-83
2021/05/08 10:46:22;;;;;;;2.83;1.95;;;19.40;47.80;;;;;;5080674;28;20044;-84
2021/05/08 10:49:12;;;;;;;3.05;1.88;;;19.10;47.20;;;;;;5079362;28;20051;-81
2021/05/08 10:51:52;;;;;;;2.17;1.98;;;18.90;48.10;;;;;;5098263;28;20047;-81
2021/05/08 10:54:48;;;;;;;1.88;1.77;;;19.50;48.60;;;;;;5079382;28;20097;-83
2021/05/08 10:57:25;;;;;;;2.03;1.90;;;19.60;47.40;;;;;;5080234;28;20044;-83
2021/05/08 11:00:19;;;;;;;2.08;1.67;;;19.80;47.10;;;;;;5080550;28;20419;-83
2021/05/08 11:02:56;;;;;;;1.90;1.80;;;20.00;46.90;;;;;;5080071;28;20075;-81
2021/05/08 11:05:33;;;;;;;2.00;1.90;;;20.40;46.50;;;;;;5098122;28;20052;-80
2021/05/08 11:07:59;;;;;;;2.20;2.00;;;19.20;46.10;;;;;;5080632;28;20040;-82
2021/05/08 11:10:32;;;;;;;2.25;2.05;;;18.90;48.10;;;;;;5081166;28;20548;-83
2021/05/08 11:13:16;;;;;;;2.00;1.90;;;19.40;48.00;;;;;;5081271;28;20046;-83
2021/05/08 11:15:52;;;;;;;2.17;1.33;;;20.60;47.30;;;;;;5100907;28;20044;-84
2021/05/08 11:18:34;;;;;;;1.65;1.55;;;20.80;46.60;;;;;;5082394;28;20059;-83
2021/05/08 11:21:27;;;;;;;2.90;1.65;;;22.10;46.80;;;;;;5081772;28;20093;-83
2021/05/08 11:23:58;;;;;;;1.50;1.50;;;22.50;43.90;;;;;;5082270;28;20423;-84
2021/05/08 11:26:25;;;;;;;1.92;1.83;;;23.50;44.50;;;;;;5082235;28;20052;-82
2021/05/08 11:28:56;;;;;;;1.77;1.67;;;23.00;42.60;;;;;;5083054;28;20117;-84
2021/05/08 11:31:32;;;;;;;1.30;1.30;;;22.20;43.10;;;;;;5099202;28;20424;-82
2021/05/08 11:34:26;;;;;;;1.48;1.40;;;22.60;45.70;;;;;;5082005;28;20054;-84
2021/05/08 11:36:59;;;;;;;1.63;1.48;;;23.50;43.70;;;;;;5082231;28;20044;-85
2021/05/08 11:39:39;;;;;;;1.77;1.40;;;23.70;42.20;;;;;;5082842;28;20116;-84
2021/05/08 11:42:25;;;;;;;3.20;1.20;;;22.60;43.90;;;;;;5100022;28;20056;-84
2021/05/08 11:44:56;;;;;;;1.55;1.20;;;21.50;43.50;;;;;;5092691;28;20059;-84
2021/05/08 11:47:30;;;;;;;4.10;1.40;;;20.80;45.40;;;;;;5089333;28;20055;-84
2021/05/08 11:49:59;;;;;;;5.80;1.60;;;20.90;46.50;;;;;;5088326;28;20146;-82
2021/05/08 11:52:40;;;;;;;2.35;1.55;;;20.60;45.00;;;;;;5081642;28;20480;-83
2021/05/08 11:55:18;;;;;;;2.50;1.60;;;18.50;45.60;;;;;;5081052;28;20070;-89
2021/05/08 11:57:55;;;;;;;2.65;1.73;;;18.40;46.90;;;;;;5077270;28;20072;-89
2021/05/08 12:00:24;;;;;;;1.30;1.20;;;17.70;48.70;;;;;;5076700;28;20129;-88
2021/05/08 12:03:06;;;;;;;1.15;1.10;;;17.80;48.20;;;;;;5077103;28;20131;-88
2021/05/08 12:05:36;;;;;;;2.10;2.00;;;18.00;50.00;;;;;;5079202;28;20052;-88
2021/05/08 12:08:03;;;;;;;2.90;1.42;;;18.10;48.20;;;;;;5094755;28;20059;-89
2021/05/08 12:10:42;;;;;;;1.77;1.65;;;18.20;49.60;;;;;;5076889;28;20076;-88
2021/05/08 12:13:09;;;;;;;1.63;1.45;;;18.40;47.40;;;;;;5077460;28;20481;-88
2021/05/08 12:15:50;;;;;;;1.40;1.27;;;19.30;48.10;;;;;;5079033;28;20461;-88
2021/05/08 12:18:19;;;;;;;1.48;1.38;;;19.50;47.40;;;;;;5076473;28;20044;-89
2021/05/08 12:20:48;;;;;;;7.38;2.22;;;19.90;47.00;;;;;;5078901;28;20048;-90
2021/05/08 12:23:25;;;;;;;1.70;1.58;;;19.50;44.80;;;;;;5091005;28;20048;-90
2021/05/08 12:26:05;;;;;;;2.45;1.30;;;19.20;44.90;;;;;;5114013;28;20514;-87
2021/05/08 12:28:45;;;;;;;7.93;1.88;;;19.30;45.60;;;;;;5103730;28;20093;-88
2021/05/08 12:31:29;;;;;;;2.83;1.52;;;18.70;45.30;;;;;;5076846;28;20044;-88
2021/05/08 12:34:06;;;;;;;1.42;1.33;;;18.60;47.40;;;;;;5076975;28;20458;-89
2021/05/08 12:36:34;;;;;;;1.38;1.38;;;18.70;48.60;;;;;;5077763;28;20101;-88
2021/05/08 12:39:21;;;;;;;2.25;1.55;;;18.60;49.30;;;;;;5076129;28;20165;-88
2021/05/08 12:41:53;;;;;;;12.65;3.65;;;18.50;46.50;;;;;;5076435;28;20097;-87
2021/05/08 12:44:28;;;;;;;2.75;1.77;;;18.40;48.10;;;;;;5078978;28;20419;-89
2021/05/08 12:47:00;;;;;;;1.58;1.48;;;18.00;47.70;;;;;;5078247;28;20048;-87
2021/05/08 12:49:28;;;;;;;2.50;1.73;;;17.70;48.20;;;;;;5080410;28;20609;-87
2021/05/08 12:51:56;;;;;;;2.17;1.50;;;17.20;48.30;;;;;;5077159;28;20063;-88
2021/05/08 12:54:24;;;;;;;1.33;1.20;;;17.10;50.30;;;;;;5077369;28;20040;-88
2021/05/08 12:56:56;;;;;;;2.75;1.45;;;17.30;51.10;;;;;;5082048;28;20101;-88